Time;durP1;ratioP1;P1;durP2;ratioP2;P2;SDS_P1;SDS_P2;PMS_P1;PMS_P2;Temp;Humidity;BMP_temperature;BMP_pressure;BME280_temperature;BME280_humidity;BME280_pressure;Samples;Min_cycle;Max_cycle;Signal;HPM_P1;HPM_P2
2023/09/15 00:02:05;;;;;;;12.20;2.40;;;;;;;14.47;91.73;100909.73;109806;1284;22294;-79
2023/09/15 00:04:36;;;;;;;11.70;2.70;;;;;;;14.49;91.64;100909.30;109779;1284;22686;-79
2023/09/15 00:07:07;;;;;;;10.90;3.10;;;;;;;14.52;92.17;100912.91;109792;1284;22139;-78
2023/09/15 00:09:38;;;;;;;9.90;3.00;;;;;;;14.53;92.08;100913.58;109807;1284;22362;-78
2023/09/15 00:12:09;;;;;;;12.30;3.00;;;;;;;14.53;91.89;100907.94;109785;1284;22202;-80
2023/09/15 00:14:40;;;;;;;11.10;2.50;;;;;;;14.54;91.78;100912.08;109801;1277;22253;-79
2023/09/15 00:17:10;;;;;;;10.60;2.30;;;;;;;14.53;91.82;100913.65;109807;1284;22416;-78
2023/09/15 00:19:41;;;;;;;11.50;3.00;;;;;;;14.53;91.78;100913.04;109814;1283;22166;-79
2023/09/15 00:22:12;;;;;;;14.00;2.80;;;;;;;14.52;91.79;100916.73;109795;1284;23120;-78
2023/09/15 00:24:43;;;;;;;17.20;2.90;;;;;;;14.51;91.93;100917.39;109801;1284;23586;-81
2023/09/15 00:27:13;;;;;;;10.50;2.70;;;;;;;14.49;92.06;100921.61;109791;1277;22668;-79
2023/09/15 00:29:44;;;;;;;8.80;2.00;;;;;;;14.46;92.13;100922.64;109788;1284;22173;-78
2023/09/15 00:32:14;;;;;;;14.90;3.20;;;;;;;14.45;92.18;100925.99;109803;1284;22151;-79
2023/09/15 00:34:45;;;;;;;10.30;2.40;;;;;;;14.45;92.35;100926.00;109801;1280;22342;-79
2023/09/15 00:37:16;;;;;;;9.50;2.30;;;;;;;14.44;92.41;100924.50;109765;1284;22193;-78
2023/09/15 00:39:46;;;;;;;12.10;2.60;;;;;;;14.44;92.52;100921.43;109796;1284;22183;-78
2023/09/15 00:42:19;;;;;;;12.00;2.30;;;;;;;14.42;92.64;100923.66;109810;1284;22181;-79
2023/09/15 00:44:51;;;;;;;8.90;2.00;;;;;;;14.43;92.65;100927.09;109778;1284;22349;-79
2023/09/15 00:47:21;;;;;;;11.20;1.80;;;;;;;14.42;92.81;100930.09;109809;1283;22161;-79
2023/09/15 00:49:52;;;;;;;12.70;2.20;;;;;;;14.41;92.97;100932.41;109822;1274;22186;-79
2023/09/15 00:52:23;;;;;;;8.50;2.30;;;;;;;14.39;93.02;100928.91;109744;1277;22179;-78
2023/09/15 00:54:54;;;;;;;9.50;3.30;;;;;;;14.40;93.28;100933.89;107134;1283;24233;-79
2023/09/15 00:57:26;;;;;;;14.20;3.00;;;;;;;14.43;93.21;100939.04;106989;1284;23300;-78
2023/09/15 00:59:57;;;;;;;13.10;2.10;;;;;;;14.46;93.52;100942.65;109823;1284;22180;-78
2023/09/15 01:02:28;;;;;;;13.70;2.40;;;;;;;14.47;93.65;100942.17;108626;1277;22619;-78
2023/09/15 01:04:59;;;;;;;10.80;2.20;;;;;;;14.49;93.60;100945.92;108783;1284;22545;-79
2023/09/15 01:07:31;;;;;;;11.00;2.20;;;;;;;14.50;93.61;100940.07;107457;1277;23423;-79
2023/09/15 01:10:03;;;;;;;11.50;2.30;;;;;;;14.52;93.59;100946.69;106650;1276;22530;-78
2023/09/15 01:12:36;;;;;;;9.60;2.20;;;;;;;14.55;93.48;100947.17;109788;1284;22212;-79
2023/09/15 01:15:08;;;;;;;8.60;2.40;;;;;;;14.54;93.40;100945.59;109813;1277;22726;-79
2023/09/15 01:17:47;;;;;;;10.50;2.10;;;;;;;14.55;93.51;100947.86;109800;1284;22155;-79
2023/09/15 01:20:27;;;;;;;9.80;2.30;;;;;;;14.57;93.34;100950.67;109824;1284;22162;-80
2023/09/15 01:23:11;;;;;;;7.10;1.70;;;;;;;14.56;93.36;100943.92;109779;1284;22209;-79
2023/09/15 01:26:07;;;;;;;17.10;2.80;;;;;;;14.57;93.48;100944.80;109779;1284;22239;-79
2023/09/15 01:29:19;;;;;;;9.60;2.30;;;;;;;14.59;93.40;100937.48;109357;1289;22338;-80
2023/09/15 01:31:50;;;;;;;9.90;2.20;;;;;;;14.61;93.49;100940.02;109348;1283;22487;-81
2023/09/15 01:34:21;;;;;;;12.70;2.20;;;;;;;14.62;93.44;100944.46;109328;1289;22383;-79
2023/09/15 01:36:53;;;;;;;8.50;2.00;;;;;;;14.61;93.47;100946.65;109342;1289;23282;-80
2023/09/15 01:39:30;;;;;;;9.60;2.20;;;;;;;14.61;93.45;100949.21;109359;1289;22257;-80
2023/09/15 01:42:00;;;;;;;11.20;2.20;;;;;;;14.59;93.46;100949.60;109341;1286;22160;-79
2023/09/15 01:44:31;;;;;;;6.70;1.70;;;;;;;14.56;93.53;100947.40;109339;1282;22668;-81
2023/09/15 01:47:02;;;;;;;9.40;2.20;;;;;;;14.53;93.70;100947.66;109341;1282;23118;-80
2023/09/15 01:49:34;;;;;;;11.40;2.40;;;;;;;14.53;93.90;100945.73;109366;1270;22249;-79
2023/09/15 01:52:06;;;;;;;10.90;2.50;;;;;;;14.54;93.89;100942.73;109362;1289;23441;-80
2023/09/15 01:54:36;;;;;;;10.80;2.40;;;;;;;14.56;94.10;100945.31;109341;1289;22276;-80
2023/09/15 01:57:07;;;;;;;13.40;2.30;;;;;;;14.58;93.97;100941.91;109351;1289;22383;-80
2023/09/15 01:59:38;;;;;;;9.20;2.10;;;;;;;14.57;94.03;100948.14;109363;1289;22251;-79
2023/09/15 02:02:08;;;;;;;14.30;2.80;;;;;;;14.57;94.00;100947.21;109375;1289;22222;-79
2023/09/15 02:04:40;;;;;;;9.60;2.40;;;;;;;14.58;94.14;100947.13;109343;1289;22254;-79
2023/09/15 02:07:11;;;;;;;8.40;2.00;;;;;;;14.60;94.06;100951.14;109739;1284;23506;-79
2023/09/15 02:09:42;;;;;;;9.60;2.00;;;;;;;14.61;94.03;100955.13;109824;1284;22377;-79
2023/09/15 02:12:13;;;;;;;9.60;2.30;;;;;;;14.61;94.17;100952.23;109753;1284;23504;-81
2023/09/15 02:14:44;;;;;;;9.20;2.20;;;;;;;14.61;94.27;100950.95;109768;1284;22154;-79
2023/09/15 02:17:15;;;;;;;10.60;3.20;;;;;;;14.61;94.23;100947.77;109791;1284;22185;-80
2023/09/15 02:19:47;;;;;;;12.60;2.40;;;;;;;14.61;94.26;100946.96;109776;1284;22186;-79
2023/09/15 02:22:18;;;;;;;9.60;2.80;;;;;;;14.60;94.13;100945.21;109763;1283;22347;-79
2023/09/15 02:24:48;;;;;;;9.90;2.30;;;;;;;14.58;94.25;100947.13;109811;1284;22155;-81
2023/09/15 02:27:19;;;;;;;11.60;2.40;;;;;;;14.57;94.39;100942.77;109785;1277;22172;-79
2023/09/15 02:29:49;;;;;;;9.90;2.60;;;;;;;14.57;94.40;100940.78;109822;1269;22257;-79
2023/09/15 02:32:20;;;;;;;14.30;2.40;;;;;;;14.58;94.44;100943.35;109824;1284;22145;-79
2023/09/15 02:34:51;;;;;;;13.20;2.60;;;;;;;14.58;94.39;100943.91;109782;1284;22213;-80
2023/09/15 02:37:22;;;;;;;10.60;2.40;;;;;;;14.59;94.43;100946.38;109811;1279;22210;-79
2023/09/15 02:39:52;;;;;;;9.10;2.70;;;;;;;14.60;94.49;100947.85;109823;1284;23047;-79
2023/09/15 02:42:23;;;;;;;10.80;2.40;;;;;;;14.61;94.47;100946.04;109794;1284;22925;-79
2023/09/15 02:44:54;;;;;;;12.50;2.60;;;;;;;14.62;94.68;100948.96;109791;1284;24979;-79
2023/09/15 02:47:25;;;;;;;14.50;2.60;;;;;;;14.62;94.75;100952.39;109813;1284;23255;-79
2023/09/15 02:49:55;;;;;;;10.60;3.00;;;;;;;14.63;94.60;100950.86;109770;1284;22425;-79
2023/09/15 02:52:26;;;;;;;13.10;3.20;;;;;;;14.63;94.56;100949.23;109786;1284;22338;-79
2023/09/15 02:54:57;;;;;;;11.30;2.40;;;;;;;14.62;94.49;100954.55;109789;1284;22329;-79
2023/09/15 02:57:28;;;;;;;11.30;2.30;;;;;;;14.63;94.56;100960.27;109776;1283;22210;-79
2023/09/15 02:59:59;;;;;;;12.10;2.60;;;;;;;14.63;94.62;100959.40;109822;1284;22176;-79
2023/09/15 03:02:29;;;;;;;8.50;2.10;;;;;;;14.63;94.66;100960.11;109792;1284;22838;-79
2023/09/15 03:05:00;;;;;;;10.20;2.10;;;;;;;14.64;94.54;100962.42;109795;1264;22330;-79
2023/09/15 03:07:31;;;;;;;7.60;2.10;;;;;;;14.64;94.67;100960.48;109785;1284;22198;-78
2023/09/15 03:10:03;;;;;;;10.70;2.70;;;;;;;14.63;94.91;100958.59;109821;1284;22180;-79
2023/09/15 03:12:33;;;;;;;12.70;2.80;;;;;;;14.64;94.70;100962.01;109781;1283;23093;-79
2023/09/15 03:15:06;;;;;;;9.80;2.70;;;;;;;14.65;94.73;100963.00;109783;1284;23182;-78
2023/09/15 03:17:38;;;;;;;9.20;2.40;;;;;;;14.65;94.78;100960.91;109799;1284;22213;-78
2023/09/15 03:20:13;;;;;;;9.10;2.50;;;;;;;14.65;95.00;100960.90;109811;1284;22182;-78
2023/09/15 03:22:44;;;;;;;13.00;2.50;;;;;;;14.62;94.77;100960.81;109774;1284;22276;-79
2023/09/15 03:25:15;;;;;;;11.90;2.60;;;;;;;14.62;94.83;100963.48;109788;1284;22162;-79
2023/09/15 03:27:45;;;;;;;11.00;2.50;;;;;;;14.63;94.88;100964.55;109818;1284;22263;-79
2023/09/15 03:30:16;;;;;;;11.20;2.60;;;;;;;14.63;94.93;100968.29;109816;1284;22206;-78
2023/09/15 03:32:47;;;;;;;9.30;2.10;;;;;;;14.64;94.84;100971.01;109753;1284;22207;-79
2023/09/15 03:35:18;;;;;;;9.60;2.40;;;;;;;14.63;94.89;100964.96;109784;1283;22852;-79
2023/09/15 03:37:49;;;;;;;13.30;3.00;;;;;;;14.61;94.83;100968.58;109808;1284;22185;-78
2023/09/15 03:40:21;;;;;;;10.50;2.30;;;;;;;14.60;94.87;100968.97;109772;1273;22331;-78
2023/09/15 03:42:52;;;;;;;13.70;3.20;;;;;;;14.59;94.91;100969.42;109805;1284;23409;-78
2023/09/15 03:45:23;;;;;;;10.40;2.70;;;;;;;14.57;95.02;100970.98;109789;1284;22177;-79
2023/09/15 03:47:54;;;;;;;12.00;2.70;;;;;;;14.57;95.02;100973.00;109800;1284;22250;-80
2023/09/15 03:50:25;;;;;;;12.40;2.20;;;;;;;14.57;95.23;100972.74;109803;1284;22215;-79
2023/09/15 03:52:55;;;;;;;11.30;2.60;;;;;;;14.58;95.24;100974.46;109787;1276;22149;-78
2023/09/15 03:55:26;;;;;;;11.70;2.70;;;;;;;14.59;95.27;100971.66;109723;1284;23073;-78
2023/09/15 03:57:58;;;;;;;13.60;3.10;;;;;;;14.61;95.28;100972.86;109757;1277;22359;-78
2023/09/15 04:00:28;;;;;;;12.30;3.00;;;;;;;14.60;95.32;100971.22;109744;1280;22260;-79
2023/09/15 04:02:59;;;;;;;10.80;2.30;;;;;;;14.61;95.43;100975.56;109756;1280;22390;-78
2023/09/15 04:05:30;;;;;;;7.00;2.30;;;;;;;14.63;95.27;100977.29;109749;1280;22291;-78
2023/09/15 04:08:01;;;;;;;12.60;2.70;;;;;;;14.64;95.38;100976.33;109759;1277;22341;-78
2023/09/15 04:10:31;;;;;;;10.00;2.50;;;;;;;14.66;95.67;100980.44;109753;1283;22185;-78
2023/09/15 04:13:03;;;;;;;8.80;2.40;;;;;;;14.66;95.48;100981.78;109775;1284;22335;-79
2023/09/15 04:15:34;;;;;;;8.30;2.40;;;;;;;14.67;95.41;100976.42;109775;1284;22188;-79
2023/09/15 04:18:08;;;;;;;12.80;2.60;;;;;;;14.68;95.67;100979.25;109734;1280;22211;-82
2023/09/15 04:20:38;;;;;;;9.90;2.40;;;;;;;14.69;95.59;100981.96;109757;1277;23337;-81
2023/09/15 04:23:09;;;;;;;9.70;2.80;;;;;;;14.68;95.37;100982.41;109721;1280;23009;-78
2023/09/15 04:25:39;;;;;;;9.20;2.90;;;;;;;14.66;95.36;100985.80;109770;1276;22140;-79
2023/09/15 04:28:10;;;;;;;8.10;2.20;;;;;;;14.67;95.42;100991.23;109736;1277;22389;-81
2023/09/15 04:30:42;;;;;;;11.30;2.50;;;;;;;14.68;95.55;100986.97;108839;1284;23076;-78
2023/09/15 04:33:12;;;;;;;10.00;2.20;;;;;;;14.69;95.69;100988.61;106678;1277;22650;-81
2023/09/15 04:35:43;;;;;;;10.20;2.60;;;;;;;14.69;95.53;100990.59;106768;1284;22480;-78
2023/09/15 04:38:13;;;;;;;8.80;2.00;;;;;;;14.69;95.69;100984.73;106785;1270;22526;-76
2023/09/15 04:40:44;;;;;;;13.50;2.40;;;;;;;14.69;95.69;100983.96;106948;1277;23425;-79
2023/09/15 04:43:16;;;;;;;10.30;2.40;;;;;;;14.69;95.85;100988.92;106849;1280;24387;-77
2023/09/15 04:45:47;;;;;;;11.80;2.30;;;;;;;14.69;96.11;100990.45;106950;1278;22661;-76
2023/09/15 04:48:18;;;;;;;11.40;2.80;;;;;;;14.69;95.89;100992.08;107015;1284;23000;-77
2023/09/15 04:50:49;;;;;;;12.50;2.30;;;;;;;14.67;95.93;100988.27;107300;1269;22544;-78
2023/09/15 04:53:20;;;;;;;11.00;2.30;;;;;;;14.68;96.16;100984.76;107706;1283;22598;-77
2023/09/15 04:55:51;;;;;;;10.80;2.60;;;;;;;14.68;96.16;100989.87;109030;1277;22964;-78
2023/09/15 04:58:22;;;;;;;10.90;2.80;;;;;;;14.68;96.30;100989.97;108022;1277;23024;-78
2023/09/15 05:00:53;;;;;;;11.20;2.40;;;;;;;14.69;96.19;100996.00;106662;1284;22530;-78
2023/09/15 05:03:23;;;;;;;16.30;3.70;;;;;;;14.70;96.14;101000.16;106746;1276;22526;-78
2023/09/15 05:05:55;;;;;;;10.40;2.40;;;;;;;14.70;96.02;101003.48;106856;1284;22566;-80
2023/09/15 05:08:26;;;;;;;11.10;2.80;;;;;;;14.70;95.96;100998.17;107065;1284;22828;-78
2023/09/15 05:10:56;;;;;;;9.50;2.30;;;;;;;14.71;96.10;101001.52;107076;1284;22601;-77
2023/09/15 05:13:27;;;;;;;9.80;2.10;;;;;;;14.72;96.22;101000.70;107333;1277;25262;-78
2023/09/15 05:15:57;;;;;;;13.20;2.40;;;;;;;14.73;96.50;101000.42;107080;1276;23785;-78
2023/09/15 05:18:28;;;;;;;14.70;3.00;;;;;;;14.74;96.62;101005.66;107019;1278;22584;-79
2023/09/15 05:20:59;;;;;;;10.90;2.90;;;;;;;14.76;96.81;101003.07;106974;1260;24199;-78
2023/09/15 05:23:30;;;;;;;11.80;2.90;;;;;;;14.78;96.84;101006.01;107062;1277;22526;-80
2023/09/15 05:26:00;;;;;;;12.50;3.70;;;;;;;14.80;97.05;101007.69;107014;1277;26517;-77
2023/09/15 05:28:31;;;;;;;13.40;3.20;;;;;;;14.83;97.00;101009.40;106892;1280;22638;-78
2023/09/15 05:31:02;;;;;;;12.20;3.20;;;;;;;14.84;96.96;101004.41;106724;1283;22799;-78
2023/09/15 05:33:33;;;;;;;14.40;3.60;;;;;;;14.88;97.20;101008.55;106625;1276;22661;-77
2023/09/15 05:36:04;;;;;;;16.50;3.30;;;;;;;14.90;97.39;101008.88;106654;1277;25509;-79
2023/09/15 05:38:35;;;;;;;15.90;3.80;;;;;;;14.93;97.43;101007.55;106665;1277;25411;-78
2023/09/15 05:41:06;;;;;;;12.80;3.80;;;;;;;14.98;97.52;101007.30;106839;1273;22554;-78
2023/09/15 05:43:36;;;;;;;18.70;4.40;;;;;;;15.02;97.45;101007.66;106684;1284;22556;-79
2023/09/15 05:46:07;;;;;;;13.20;3.20;;;;;;;15.07;97.49;101007.68;106802;1277;22675;-78
2023/09/15 05:48:38;;;;;;;15.90;3.40;;;;;;;15.11;97.43;101005.89;106864;1277;27938;-77
2023/09/15 05:51:09;;;;;;;16.00;3.40;;;;;;;15.14;97.40;101012.12;106903;1273;22547;-78
2023/09/15 05:53:39;;;;;;;17.20;4.50;;;;;;;15.17;97.42;101013.19;106922;1271;22529;-80
2023/09/15 05:56:10;;;;;;;12.50;3.00;;;;;;;15.22;97.33;101016.88;106894;1277;25355;-79
2023/09/15 05:58:41;;;;;;;15.50;3.10;;;;;;;15.26;97.39;101015.59;106789;1284;24309;-77
2023/09/15 06:01:12;;;;;;;17.00;3.20;;;;;;;15.31;97.28;101013.71;106753;1284;22666;-78
2023/09/15 06:03:43;;;;;;;14.20;4.20;;;;;;;15.34;97.26;101017.79;106656;1284;24586;-78
2023/09/15 06:06:13;;;;;;;13.90;3.50;;;;;;;15.37;97.03;101015.17;106749;1283;23978;-77
2023/09/15 06:08:44;;;;;;;16.40;4.40;;;;;;;15.40;96.78;101021.23;106829;1261;23405;-78
2023/09/15 06:11:15;;;;;;;14.60;3.90;;;;;;;15.42;96.59;101021.59;106838;1284;25578;-77
2023/09/15 06:13:47;;;;;;;16.80;3.90;;;;;;;15.44;96.38;101027.70;106909;1280;22546;-79
2023/09/15 06:16:17;;;;;;;10.60;3.80;;;;;;;15.46;96.48;101031.52;106818;1284;22548;-77
2023/09/15 06:18:48;;;;;;;13.00;3.50;;;;;;;15.46;96.24;101029.31;106737;1284;25311;-77
2023/09/15 06:21:19;;;;;;;16.40;3.40;;;;;;;15.47;96.35;101033.22;106857;1284;22565;-77
2023/09/15 06:23:49;;;;;;;10.70;3.20;;;;;;;15.50;96.49;101031.71;106881;1261;25336;-77
2023/09/15 06:26:20;;;;;;;11.40;3.70;;;;;;;15.52;96.53;101036.05;106836;1284;22534;-77
2023/09/15 06:28:50;;;;;;;11.50;3.30;;;;;;;15.53;96.44;101035.34;106754;1280;22534;-77
2023/09/15 06:31:22;;;;;;;19.10;3.80;;;;;;;15.54;96.32;101037.13;106823;1284;22627;-77
2023/09/15 06:33:53;;;;;;;13.60;3.70;;;;;;;15.56;96.36;101039.11;106641;1277;22532;-77
2023/09/15 06:36:26;;;;;;;11.40;3.60;;;;;;;15.58;96.21;101035.76;106627;1279;25340;-77
2023/09/15 06:38:57;;;;;;;16.80;4.30;;;;;;;15.63;96.27;101034.27;109759;1284;22351;-78
2023/09/15 06:41:28;;;;;;;18.50;3.70;;;;;;;15.66;96.07;101035.68;109797;1284;22136;-78
2023/09/15 06:43:59;;;;;;;13.40;3.60;;;;;;;15.70;96.22;101037.21;109780;1284;22396;-78
2023/09/15 06:46:29;;;;;;;17.20;4.50;;;;;;;15.75;96.23;101039.16;109796;1284;22309;-79
2023/09/15 06:49:00;;;;;;;15.20;4.20;;;;;;;15.79;96.40;101043.45;109790;1264;22144;-78
2023/09/15 06:51:32;;;;;;;10.40;3.30;;;;;;;15.85;96.31;101042.24;109790;1268;22140;-78
2023/09/15 06:54:03;;;;;;;13.00;3.70;;;;;;;15.91;96.22;101045.47;109779;1284;22158;-78
2023/09/15 06:56:34;;;;;;;11.70;3.00;;;;;;;15.97;96.27;101043.89;109770;1283;22240;-78
2023/09/15 06:59:05;;;;;;;11.70;3.40;;;;;;;16.02;95.82;101045.34;109758;1284;22255;-78
2023/09/15 07:01:35;;;;;;;13.90;3.20;;;;;;;16.07;95.78;101047.58;109799;1284;22197;-78
2023/09/15 07:04:06;;;;;;;15.20;4.10;;;;;;;16.12;95.65;101044.19;109781;1283;22651;-78
2023/09/15 07:06:38;;;;;;;10.30;2.70;;;;;;;16.17;95.87;101047.86;109806;1283;22232;-78
2023/09/15 07:09:09;;;;;;;12.60;3.60;;;;;;;16.22;95.83;101049.81;109787;1276;22151;-79
2023/09/15 07:11:40;;;;;;;11.10;3.00;;;;;;;16.29;96.05;101048.39;109800;1284;22960;-78
2023/09/15 07:14:11;;;;;;;12.90;4.20;;;;;;;16.35;95.97;101045.20;109795;1284;22249;-79
2023/09/15 07:16:43;;;;;;;12.80;3.10;;;;;;;16.41;95.82;101044.35;109810;1283;22647;-78
2023/09/15 07:19:14;;;;;;;12.70;3.90;;;;;;;16.48;95.76;101046.45;109803;1284;22175;-78
2023/09/15 07:21:44;;;;;;;16.90;4.40;;;;;;;16.54;95.66;101044.84;109784;1284;22177;-78
2023/09/15 07:24:15;;;;;;;10.90;3.90;;;;;;;16.62;95.85;101048.90;109780;1277;22223;-78
2023/09/15 07:26:47;;;;;;;14.30;3.80;;;;;;;16.68;95.70;101048.67;109769;1279;22188;-77
2023/09/15 07:29:17;;;;;;;11.20;3.10;;;;;;;16.74;95.38;101054.24;109768;1284;22241;-80
2023/09/15 07:31:48;;;;;;;11.00;3.20;;;;;;;16.81;95.13;101051.23;109751;1285;22208;-78
2023/09/15 07:34:21;;;;;;;14.70;3.90;;;;;;;16.88;95.27;101050.40;109293;1283;22549;-79
2023/09/15 07:36:52;;;;;;;14.40;3.30;;;;;;;16.96;94.86;101055.12;109778;1280;22113;-79
2023/09/15 07:39:22;;;;;;;14.80;3.20;;;;;;;17.05;94.91;101059.02;109798;1280;22172;-78
2023/09/15 07:41:53;;;;;;;12.70;3.60;;;;;;;17.14;95.05;101063.67;109779;1284;22151;-80
2023/09/15 07:44:24;;;;;;;14.30;3.40;;;;;;;17.22;94.82;101056.38;109793;1273;22135;-79
2023/09/15 07:46:55;;;;;;;10.20;2.90;;;;;;;17.30;94.67;101055.14;109799;1284;22157;-80
2023/09/15 07:49:25;;;;;;;10.20;2.90;;;;;;;17.38;94.31;101055.73;109728;1281;22834;-80
2023/09/15 07:51:56;;;;;;;10.80;2.90;;;;;;;17.47;94.23;101057.73;109807;1277;23064;-79
2023/09/15 07:54:28;;;;;;;10.50;2.40;;;;;;;17.59;94.28;101054.92;109768;1283;22149;-79
2023/09/15 07:56:59;;;;;;;10.40;2.70;;;;;;;17.70;94.18;101053.63;109781;1277;23065;-79
2023/09/15 07:59:30;;;;;;;9.50;2.50;;;;;;;17.81;93.72;101058.13;109759;1274;22185;-79
2023/09/15 08:02:01;;;;;;;12.80;2.60;;;;;;;17.90;93.36;101056.50;109787;1283;22398;-79
2023/09/15 08:04:32;;;;;;;11.30;2.30;;;;;;;18.00;93.08;101053.64;109772;1283;22243;-79
2023/09/15 08:07:05;;;;;;;7.40;1.90;;;;;;;18.07;92.37;101055.77;109783;1283;22169;-79
2023/09/15 08:09:36;;;;;;;8.50;2.10;;;;;;;18.14;92.50;101053.52;109791;1277;22898;-80
2023/09/15 08:12:08;;;;;;;12.60;1.90;;;;;;;18.22;92.04;101053.73;109781;1283;22271;-79
2023/09/15 08:14:40;;;;;;;10.50;2.20;;;;;;;18.31;92.08;101054.24;109758;1283;22354;-79
2023/09/15 08:17:10;;;;;;;12.60;2.20;;;;;;;18.41;91.73;101054.62;109773;1283;22170;-79
2023/09/15 08:19:41;;;;;;;10.90;1.90;;;;;;;18.50;91.22;101056.88;109784;1283;23032;-79
2023/09/15 08:22:13;;;;;;;13.70;2.10;;;;;;;18.62;91.23;101054.79;109767;1283;22263;-80
2023/09/15 08:24:44;;;;;;;11.40;2.20;;;;;;;18.75;90.78;101054.14;109798;1283;22156;-80
2023/09/15 08:27:15;;;;;;;9.50;2.00;;;;;;;18.83;90.46;101058.50;109795;1280;22192;-79
2023/09/15 08:29:45;;;;;;;8.00;1.30;;;;;;;18.92;89.85;101059.48;109797;1284;22180;-79
2023/09/15 08:32:17;;;;;;;6.40;1.70;;;;;;;18.98;89.67;101056.21;109786;1284;22606;-80
2023/09/15 08:34:47;;;;;;;8.80;1.80;;;;;;;19.02;89.21;101058.05;109779;1283;22155;-79
2023/09/15 08:37:18;;;;;;;6.60;1.90;;;;;;;19.06;88.51;101055.42;109773;1280;22258;-79
2023/09/15 08:39:49;;;;;;;9.70;2.20;;;;;;;19.09;88.19;101055.36;109800;1283;22207;-79
2023/09/15 08:42:24;;;;;;;11.90;2.00;;;;;;;19.11;87.71;101056.34;109776;1284;23086;-79
2023/09/15 08:44:56;;;;;;;6.60;1.50;;;;;;;19.13;87.29;101060.70;109739;1282;22657;-79
2023/09/15 08:47:31;;;;;;;7.40;1.20;;;;;;;19.16;87.23;101059.00;109795;1283;22190;-79
2023/09/15 08:50:04;;;;;;;5.80;1.10;;;;;;;19.19;87.09;101058.01;109794;1284;22432;-79
2023/09/15 08:52:37;;;;;;;17.40;1.80;;;;;;;19.27;86.97;101057.94;108371;1280;24404;-79
2023/09/15 08:55:09;;;;;;;7.60;1.20;;;;;;;19.35;86.81;101058.29;109866;1283;22199;-79
2023/09/15 08:57:41;;;;;;;6.90;1.10;;;;;;;19.44;86.87;101060.00;109836;1284;22350;-79
2023/09/15 09:00:13;;;;;;;5.70;1.10;;;;;;;19.51;85.92;101055.09;109798;1273;22425;-79
2023/09/15 09:02:44;;;;;;;5.90;0.80;;;;;;;19.53;84.57;101058.38;109788;1284;22324;-78
2023/09/15 09:05:16;;;;;;;5.70;0.80;;;;;;;19.50;83.09;101055.24;109762;1284;23142;-79
2023/09/15 09:07:47;;;;;;;6.30;0.80;;;;;;;19.45;82.78;101051.92;109792;1284;23022;-79
2023/09/15 09:10:19;;;;;;;6.10;1.00;;;;;;;19.40;82.46;101052.09;109746;1284;22425;-79
2023/09/15 09:12:49;;;;;;;4.40;0.80;;;;;;;19.36;82.40;101051.55;109793;1279;22231;-79
2023/09/15 09:15:22;;;;;;;9.90;1.00;;;;;;;19.34;82.45;101052.02;109773;1284;22155;-79
2023/09/15 09:17:53;;;;;;;7.90;1.00;;;;;;;19.37;83.07;101051.80;109787;1277;22708;-79
2023/09/15 09:20:28;;;;;;;5.50;0.90;;;;;;;19.42;82.69;101050.64;109817;1284;22186;-80
2023/09/15 09:22:58;;;;;;;5.80;0.80;;;;;;;19.48;82.50;101048.77;109766;1284;23243;-80
2023/09/15 09:25:33;;;;;;;3.80;0.80;;;;;;;19.54;82.39;101053.17;109787;1284;22711;-80
2023/09/15 09:28:05;;;;;;;3.10;0.70;;;;;;;19.60;82.16;101057.66;109784;1284;22152;-79
2023/09/15 09:30:36;;;;;;;6.10;1.00;;;;;;;19.67;81.66;101054.08;109807;1284;22176;-80
2023/09/15 09:33:08;;;;;;;3.70;0.80;;;;;;;19.73;80.92;101055.39;109817;1284;22275;-79
2023/09/15 09:35:39;;;;;;;5.00;1.00;;;;;;;19.77;79.82;101049.73;109800;1284;22243;-80
2023/09/15 09:38:13;;;;;;;3.80;0.70;;;;;;;19.83;79.99;101050.02;109793;1271;23223;-80
2023/09/15 09:40:44;;;;;;;4.10;0.90;;;;;;;19.90;79.57;101046.89;109792;1284;22633;-80
2023/09/15 09:43:15;;;;;;;3.60;0.70;;;;;;;19.97;79.67;101042.51;109789;1284;22164;-80
2023/09/15 09:45:50;;;;;;;5.70;0.90;;;;;;;20.07;79.78;101043.98;109793;1284;22558;-79
2023/09/15 09:48:23;;;;;;;5.50;0.90;;;;;;;20.16;78.56;101043.71;109797;1284;22160;-79
2023/09/15 09:50:55;;;;;;;5.00;0.80;;;;;;;20.24;78.42;101042.55;109804;1284;22227;-80
2023/09/15 09:53:34;;;;;;;5.50;1.00;;;;;;;20.31;77.86;101043.74;109782;1284;22158;-80
2023/09/15 09:56:06;;;;;;;4.90;0.70;;;;;;;20.36;77.12;101043.75;109796;1280;22821;-80
2023/09/15 09:58:38;;;;;;;3.80;0.90;;;;;;;20.39;76.04;101040.74;109817;1284;22180;-80
2023/09/15 10:01:11;;;;;;;8.70;0.60;;;;;;;20.44;76.40;101040.73;109799;1284;22141;-80
2023/09/15 10:03:42;;;;;;;6.10;0.90;;;;;;;20.53;76.20;101044.64;109804;1283;22196;-80
2023/09/15 10:06:13;;;;;;;4.70;0.80;;;;;;;20.63;75.88;101036.10;109644;1274;211116;-80
2023/09/15 10:08:46;;;;;;;2.60;0.70;;;;;;;20.72;75.38;101035.33;109836;1283;22148;-81
2023/09/15 10:11:17;;;;;;;6.80;0.80;;;;;;;20.81;74.41;101033.70;109811;1274;22673;-80
2023/09/15 10:13:48;;;;;;;4.60;0.80;;;;;;;20.85;73.64;101033.60;109798;1284;22279;-82
2023/09/15 10:16:20;;;;;;;7.60;0.70;;;;;;;20.91;73.33;101029.39;109788;1284;22165;-81
2023/09/15 10:18:51;;;;;;;6.30;0.80;;;;;;;20.99;72.81;101023.86;109823;1273;22179;-79
2023/09/15 10:21:22;;;;;;;4.20;0.80;;;;;;;21.04;72.25;101021.81;109803;1280;23036;-81
2023/09/15 10:24:01;;;;;;;3.80;0.80;;;;;;;21.05;72.01;101016.08;109813;1284;22205;-80
2023/09/15 10:26:32;;;;;;;3.00;0.60;;;;;;;21.03;71.45;101019.04;109803;1284;22148;-80
2023/09/15 10:29:06;;;;;;;3.10;0.70;;;;;;;21.01;71.19;101015.31;109782;1284;23380;-79
2023/09/15 10:31:37;;;;;;;6.50;0.80;;;;;;;21.00;71.36;101021.84;109812;1284;22137;-82
2023/09/15 10:34:08;;;;;;;3.40;0.60;;;;;;;20.96;71.66;101015.16;109780;1284;22213;-81
2023/09/15 10:36:39;;;;;;;6.60;0.90;;;;;;;20.95;71.70;101015.73;109772;1284;22858;-81
2023/09/15 10:39:18;;;;;;;3.80;0.70;;;;;;;20.94;71.37;101009.91;109797;1284;22185;-81
2023/09/15 10:41:49;;;;;;;5.00;0.80;;;;;;;20.91;70.83;101008.40;109820;1280;22209;-81
2023/09/15 10:44:30;;;;;;;3.20;0.60;;;;;;;20.89;70.85;101011.41;109800;1284;22317;-81
2023/09/15 10:47:01;;;;;;;5.10;0.90;;;;;;;20.90;70.79;101010.73;109824;1284;22496;-79
2023/09/15 10:49:32;;;;;;;4.40;0.60;;;;;;;20.91;70.50;101006.49;109823;1280;22166;-79
2023/09/15 10:52:04;;;;;;;4.00;0.60;;;;;;;20.92;70.14;101007.25;109807;1280;23038;-79
2023/09/15 10:54:36;;;;;;;4.00;0.80;;;;;;;20.97;70.32;101006.38;109785;1280;22223;-79
2023/09/15 10:57:09;;;;;;;4.00;1.00;;;;;;;21.01;70.17;101006.75;109794;1284;22950;-82
2023/09/15 10:59:40;;;;;;;5.60;0.90;;;;;;;21.03;69.78;101010.46;109800;1284;22954;-81
2023/09/15 11:02:11;;;;;;;2.90;0.60;;;;;;;21.05;69.12;101014.11;109815;1284;22125;-82
2023/09/15 11:04:42;;;;;;;5.10;0.60;;;;;;;21.05;68.24;101013.65;109820;1284;22197;-81
2023/09/15 11:07:14;;;;;;;5.70;0.90;;;;;;;21.06;68.78;101010.38;109836;1284;22283;-79
2023/09/15 11:09:45;;;;;;;3.10;0.70;;;;;;;21.10;68.36;101009.77;109810;1280;22230;-80
2023/09/15 11:12:16;;;;;;;4.70;0.90;;;;;;;21.14;68.40;101010.95;109818;1268;22194;-79
2023/09/15 11:14:47;;;;;;;3.60;1.10;;;;;;;21.17;68.04;101002.76;109805;1280;22308;-80
2023/09/15 11:17:19;;;;;;;4.50;0.70;;;;;;;21.21;67.80;101005.71;109798;1280;22158;-80
2023/09/15 11:19:52;;;;;;;6.10;0.80;;;;;;;21.23;67.13;101001.03;109803;1284;22302;-80
2023/09/15 11:22:23;;;;;;;4.20;0.90;;;;;;;21.25;67.11;101001.88;109804;1284;22177;-80
2023/09/15 11:24:54;;;;;;;4.70;0.60;;;;;;;21.28;66.80;101000.51;109805;1284;22151;-80
2023/09/15 11:27:25;;;;;;;4.30;0.70;;;;;;;21.29;66.53;101003.13;109785;1279;22261;-80
2023/09/15 11:29:56;;;;;;;4.40;0.70;;;;;;;21.31;65.97;101000.88;109800;1284;22130;-80
2023/09/15 11:32:26;;;;;;;3.00;0.60;;;;;;;21.34;65.41;100999.19;109820;1284;22645;-82